sensor_id;sensor_type;location;lat;lon;timestamp;temperature;humidity
20803;DHT22;10562;-33.856;151.182;2024-03-29T00:01:05;23.90;99.90
20803;DHT22;10562;-33.856;151.182;2024-03-29T00:03:34;23.90;99.90
20803;DHT22;10562;-33.856;151.182;2024-03-29T00:06:03;23.90;99.90
20803;DHT22;10562;-33.856;151.182;2024-03-29T00:08:32;23.90;99.90
20803;DHT22;10562;-33.856;151.182;2024-03-29T00:11:00;24.00;99.90
20803;DHT22;10562;-33.856;151.182;2024-03-29T00:13:29;24.10;99.90
20803;DHT22;10562;-33.856;151.182;2024-03-29T00:15:59;24.20;99.90
20803;DHT22;10562;-33.856;151.182;2024-03-29T00:18:29;24.30;99.90
20803;DHT22;10562;-33.856;151.182;2024-03-29T00:20:58;24.40;99.90
20803;DHT22;10562;-33.856;151.182;2024-03-29T00:23:27;24.50;99.90
20803;DHT22;10562;-33.856;151.182;2024-03-29T00:25:55;24.60;99.90
20803;DHT22;10562;-33.856;151.182;2024-03-29T00:28:24;24.70;99.90
20803;DHT22;10562;-33.856;151.182;2024-03-29T00:30:53;24.80;99.90
20803;DHT22;10562;-33.856;151.182;2024-03-29T00:33:25;25.00;99.90
20803;DHT22;10562;-33.856;151.182;2024-03-29T00:35:54;25.20;99.90
20803;DHT22;10562;-33.856;151.182;2024-03-29T00:38:23;25.50;99.90
20803;DHT22;10562;-33.856;151.182;2024-03-29T00:40:52;25.50;99.90
20803;DHT22;10562;-33.856;151.182;2024-03-29T00:43:21;25.50;99.90
20803;DHT22;10562;-33.856;151.182;2024-03-29T00:45:50;25.50;99.90
20803;DHT22;10562;-33.856;151.182;2024-03-29T00:48:19;25.40;99.90
20803;DHT22;10562;-33.856;151.182;2024-03-29T00:50:50;25.40;99.90
20803;DHT22;10562;-33.856;151.182;2024-03-29T00:53:18;25.40;99.90
20803;DHT22;10562;-33.856;151.182;2024-03-29T00:55:47;25.50;99.90
20803;DHT22;10562;-33.856;151.182;2024-03-29T00:58:16;25.90;99.90
20803;DHT22;10562;-33.856;151.182;2024-03-29T01:00:44;26.30;99.90
20803;DHT22;10562;-33.856;151.182;2024-03-29T01:03:13;26.60;99.90
20803;DHT22;10562;-33.856;151.182;2024-03-29T01:05:42;26.90;99.90
20803;DHT22;10562;-33.856;151.182;2024-03-29T01:08:12;27.10;99.90
20803;DHT22;10562;-33.856;151.182;2024-03-29T01:10:41;27.40;99.90
20803;DHT22;10562;-33.856;151.182;2024-03-29T01:13:10;27.40;99.90
20803;DHT22;10562;-33.856;151.182;2024-03-29T01:15:40;27.30;99.90
20803;DHT22;10562;-33.856;151.182;2024-03-29T01:18:08;27.00;99.90
20803;DHT22;10562;-33.856;151.182;2024-03-29T01:20:38;26.70;99.90
20803;DHT22;10562;-33.856;151.182;2024-03-29T01:23:07;26.40;99.90
20803;DHT22;10562;-33.856;151.182;2024-03-29T01:25:38;26.20;99.90
20803;DHT22;10562;-33.856;151.182;2024-03-29T01:28:07;25.90;99.90
20803;DHT22;10562;-33.856;151.182;2024-03-29T01:30:36;25.50;99.90
20803;DHT22;10562;-33.856;151.182;2024-03-29T01:33:05;25.10;99.90
20803;DHT22;10562;-33.856;151.182;2024-03-29T01:35:34;25.20;99.90
20803;DHT22;10562;-33.856;151.182;2024-03-29T01:38:04;25.50;99.90
20803;DHT22;10562;-33.856;151.182;2024-03-29T01:40:33;25.80;99.90
20803;DHT22;10562;-33.856;151.182;2024-03-29T01:43:05;26.10;99.90
20803;DHT22;10562;-33.856;151.182;2024-03-29T01:45:39;26.40;99.90
20803;DHT22;10562;-33.856;151.182;2024-03-29T01:48:11;26.80;99.90
20803;DHT22;10562;-33.856;151.182;2024-03-29T01:50:43;26.90;99.90
20803;DHT22;10562;-33.856;151.182;2024-03-29T01:53:27;26.90;99.90
20803;DHT22;10562;-33.856;151.182;2024-03-29T01:56:01;26.60;99.90
20803;DHT22;10562;-33.856;151.182;2024-03-29T01:58:34;26.60;99.90
20803;DHT22;10562;-33.856;151.182;2024-03-29T02:01:07;26.70;99.90
20803;DHT22;10562;-33.856;151.182;2024-03-29T02:03:40;26.70;99.90
20803;DHT22;10562;-33.856;151.182;2024-03-29T02:06:12;27.10;99.90
20803;DHT22;10562;-33.856;151.182;2024-03-29T02:08:44;27.20;99.90
20803;DHT22;10562;-33.856;151.182;2024-03-29T02:11:15;27.20;99.90
20803;DHT22;10562;-33.856;151.182;2024-03-29T02:13:49;27.10;99.90
20803;DHT22;10562;-33.856;151.182;2024-03-29T02:16:21;27.10;99.90
20803;DHT22;10562;-33.856;151.182;2024-03-29T02:18:52;27.00;99.90
20803;DHT22;10562;-33.856;151.182;2024-03-29T02:21:23;26.70;99.90
20803;DHT22;10562;-33.856;151.182;2024-03-29T02:24:06;26.50;99.90
20803;DHT22;10562;-33.856;151.182;2024-03-29T02:26:37;26.30;99.90
20803;DHT22;10562;-33.856;151.182;2024-03-29T02:29:10;26.30;99.90
20803;DHT22;10562;-33.856;151.182;2024-03-29T02:31:41;26.40;99.90
20803;DHT22;10562;-33.856;151.182;2024-03-29T02:34:12;26.50;99.90
20803;DHT22;10562;-33.856;151.182;2024-03-29T02:36:43;26.30;99.90
20803;DHT22;10562;-33.856;151.182;2024-03-29T02:39:16;26.40;99.90
20803;DHT22;10562;-33.856;151.182;2024-03-29T02:41:47;26.50;99.90
20803;DHT22;10562;-33.856;151.182;2024-03-29T02:44:19;26.40;99.90
20803;DHT22;10562;-33.856;151.182;2024-03-29T02:46:48;26.40;99.90
20803;DHT22;10562;-33.856;151.182;2024-03-29T02:49:19;26.50;99.90
20803;DHT22;10562;-33.856;151.182;2024-03-29T02:51:48;26.70;99.90
20803;DHT22;10562;-33.856;151.182;2024-03-29T02:54:25;26.80;99.90
20803;DHT22;10562;-33.856;151.182;2024-03-29T02:56:54;26.90;99.90
20803;DHT22;10562;-33.856;151.182;2024-03-29T02:59:25;27.00;99.90
20803;DHT22;10562;-33.856;151.182;2024-03-29T03:01:54;26.80;99.90
20803;DHT22;10562;-33.856;151.182;2024-03-29T03:04:26;26.80;99.90
20803;DHT22;10562;-33.856;151.182;2024-03-29T03:06:56;26.80;99.90
20803;DHT22;10562;-33.856;151.182;2024-03-29T03:09:48;26.60;99.90
20803;DHT22;10562;-33.856;151.182;2024-03-29T03:12:32;26.70;99.90
20803;DHT22;10562;-33.856;151.182;2024-03-29T03:15:02;26.80;99.90
20803;DHT22;10562;-33.856;151.182;2024-03-29T03:17:35;26.90;99.90
20803;DHT22;10562;-33.856;151.182;2024-03-29T03:20:05;27.00;99.90
20803;DHT22;10562;-33.856;151.182;2024-03-29T03:22:37;27.10;99.90
20803;DHT22;10562;-33.856;151.182;2024-03-29T03:25:11;27.10;99.90
20803;DHT22;10562;-33.856;151.182;2024-03-29T03:27:42;27.20;99.90
20803;DHT22;10562;-33.856;151.182;2024-03-29T03:30:12;27.00;99.90
20803;DHT22;10562;-33.856;151.182;2024-03-29T03:32:43;27.20;99.90
20803;DHT22;10562;-33.856;151.182;2024-03-29T03:35:13;27.10;99.90
20803;DHT22;10562;-33.856;151.182;2024-03-29T03:37:44;27.00;99.90
20803;DHT22;10562;-33.856;151.182;2024-03-29T03:40:17;27.00;99.90
20803;DHT22;10562;-33.856;151.182;2024-03-29T03:42:47;27.00;99.90
20803;DHT22;10562;-33.856;151.182;2024-03-29T03:45:17;27.00;99.90
20803;DHT22;10562;-33.856;151.182;2024-03-29T03:47:51;27.00;99.90
20803;DHT22;10562;-33.856;151.182;2024-03-29T03:50:21;27.10;99.90
20803;DHT22;10562;-33.856;151.182;2024-03-29T03:52:51;27.10;99.90
20803;DHT22;10562;-33.856;151.182;2024-03-29T03:55:23;27.10;99.90
20803;DHT22;10562;-33.856;151.182;2024-03-29T03:57:55;27.10;99.90
20803;DHT22;10562;-33.856;151.182;2024-03-29T04:00:24;27.00;99.90
20803;DHT22;10562;-33.856;151.182;2024-03-29T04:02:55;27.10;99.90
20803;DHT22;10562;-33.856;151.182;2024-03-29T04:05:25;27.20;99.90
20803;DHT22;10562;-33.856;151.182;2024-03-29T04:07:56;27.10;99.90
20803;DHT22;10562;-33.856;151.182;2024-03-29T04:10:27;27.00;99.90
20803;DHT22;10562;-33.856;151.182;2024-03-29T04:12:58;27.00;99.90
20803;DHT22;10562;-33.856;151.182;2024-03-29T04:15:27;27.10;99.90
20803;DHT22;10562;-33.856;151.182;2024-03-29T04:18:01;27.10;99.90
20803;DHT22;10562;-33.856;151.182;2024-03-29T04:20:30;27.00;99.90
20803;DHT22;10562;-33.856;151.182;2024-03-29T04:23:04;27.00;99.90
20803;DHT22;10562;-33.856;151.182;2024-03-29T04:25:35;27.00;99.90
20803;DHT22;10562;-33.856;151.182;2024-03-29T04:28:06;27.00;99.90
20803;DHT22;10562;-33.856;151.182;2024-03-29T04:30:35;26.90;99.90
20803;DHT22;10562;-33.856;151.182;2024-03-29T04:33:06;26.80;99.90
20803;DHT22;10562;-33.856;151.182;2024-03-29T04:35:35;26.80;99.90
20803;DHT22;10562;-33.856;151.182;2024-03-29T04:38:06;26.60;99.90
20803;DHT22;10562;-33.856;151.182;2024-03-29T04:40:42;26.60;99.90
20803;DHT22;10562;-33.856;151.182;2024-03-29T04:43:13;26.40;99.90
20803;DHT22;10562;-33.856;151.182;2024-03-29T04:45:45;26.40;99.90
20803;DHT22;10562;-33.856;151.182;2024-03-29T04:48:16;26.40;99.90
20803;DHT22;10562;-33.856;151.182;2024-03-29T04:50:47;26.30;99.90
20803;DHT22;10562;-33.856;151.182;2024-03-29T04:53:17;26.40;99.90
20803;DHT22;10562;-33.856;151.182;2024-03-29T04:55:54;26.30;99.90
20803;DHT22;10562;-33.856;151.182;2024-03-29T04:58:26;26.50;99.90
20803;DHT22;10562;-33.856;151.182;2024-03-29T05:01:00;26.60;99.90
20803;DHT22;10562;-33.856;151.182;2024-03-29T05:03:34;26.40;99.90
20803;DHT22;10562;-33.856;151.182;2024-03-29T05:06:05;26.40;99.90
20803;DHT22;10562;-33.856;151.182;2024-03-29T05:08:36;26.30;99.90
20803;DHT22;10562;-33.856;151.182;2024-03-29T05:11:09;26.30;99.90
20803;DHT22;10562;-33.856;151.182;2024-03-29T05:13:43;26.30;99.90
20803;DHT22;10562;-33.856;151.182;2024-03-29T05:16:14;26.40;99.90
20803;DHT22;10562;-33.856;151.182;2024-03-29T05:18:45;26.40;99.90
20803;DHT22;10562;-33.856;151.182;2024-03-29T05:21:16;26.20;99.90
20803;DHT22;10562;-33.856;151.182;2024-03-29T05:23:46;26.10;99.90
20803;DHT22;10562;-33.856;151.182;2024-03-29T05:26:19;26.20;99.90
20803;DHT22;10562;-33.856;151.182;2024-03-29T05:28:50;26.10;99.90
20803;DHT22;10562;-33.856;151.182;2024-03-29T05:31:22;26.10;99.90
20803;DHT22;10562;-33.856;151.182;2024-03-29T05:33:52;26.00;99.90
20803;DHT22;10562;-33.856;151.182;2024-03-29T05:36:23;26.10;99.90
20803;DHT22;10562;-33.856;151.182;2024-03-29T05:38:54;26.20;99.90
20803;DHT22;10562;-33.856;151.182;2024-03-29T05:41:27;26.30;99.90
20803;DHT22;10562;-33.856;151.182;2024-03-29T05:43:58;26.50;99.90
20803;DHT22;10562;-33.856;151.182;2024-03-29T05:46:29;26.40;99.90
20803;DHT22;10562;-33.856;151.182;2024-03-29T05:49:00;26.40;99.90
20803;DHT22;10562;-33.856;151.182;2024-03-29T05:51:30;26.50;99.90
20803;DHT22;10562;-33.856;151.182;2024-03-29T05:54:01;26.60;99.90
20803;DHT22;10562;-33.856;151.182;2024-03-29T05:56:35;26.80;99.90
20803;DHT22;10562;-33.856;151.182;2024-03-29T05:59:05;26.70;99.90
20803;DHT22;10562;-33.856;151.182;2024-03-29T06:01:36;26.80;99.90
20803;DHT22;10562;-33.856;151.182;2024-03-29T06:04:07;26.90;99.90
20803;DHT22;10562;-33.856;151.182;2024-03-29T06:06:43;26.90;99.90
20803;DHT22;10562;-33.856;151.182;2024-03-29T06:09:14;26.90;99.90
20803;DHT22;10562;-33.856;151.182;2024-03-29T06:11:47;27.10;99.90
20803;DHT22;10562;-33.856;151.182;2024-03-29T06:14:18;27.10;99.90
20803;DHT22;10562;-33.856;151.182;2024-03-29T06:17:05;27.20;99.90
20803;DHT22;10562;-33.856;151.182;2024-03-29T06:19:54;27.30;99.90
20803;DHT22;10562;-33.856;151.182;2024-03-29T06:22:28;27.50;99.90
20803;DHT22;10562;-33.856;151.182;2024-03-29T06:24:59;27.60;99.90
20803;DHT22;10562;-33.856;151.182;2024-03-29T06:27:34;27.60;99.90
20803;DHT22;10562;-33.856;151.182;2024-03-29T06:30:06;27.60;99.90
20803;DHT22;10562;-33.856;151.182;2024-03-29T06:32:38;27.60;99.90
20803;DHT22;10562;-33.856;151.182;2024-03-29T06:35:09;27.60;99.90
20803;DHT22;10562;-33.856;151.182;2024-03-29T06:37:39;27.50;99.90
20803;DHT22;10562;-33.856;151.182;2024-03-29T06:40:11;27.30;99.90
20803;DHT22;10562;-33.856;151.182;2024-03-29T06:42:45;27.30;99.90
20803;DHT22;10562;-33.856;151.182;2024-03-29T06:45:16;27.30;99.90
20803;DHT22;10562;-33.856;151.182;2024-03-29T06:47:47;27.40;99.90
20803;DHT22;10562;-33.856;151.182;2024-03-29T06:50:18;27.40;99.90
20803;DHT22;10562;-33.856;151.182;2024-03-29T06:52:50;27.40;99.90
20803;DHT22;10562;-33.856;151.182;2024-03-29T06:55:21;27.30;99.90
20803;DHT22;10562;-33.856;151.182;2024-03-29T06:57:54;27.30;99.90
20803;DHT22;10562;-33.856;151.182;2024-03-29T07:00:25;27.00;99.90
20803;DHT22;10562;-33.856;151.182;2024-03-29T07:02:55;26.90;99.90
20803;DHT22;10562;-33.856;151.182;2024-03-29T07:05:26;26.70;99.90
20803;DHT22;10562;-33.856;151.182;2024-03-29T07:07:57;26.60;99.90
20803;DHT22;10562;-33.856;151.182;2024-03-29T07:10:28;26.60;99.90
20803;DHT22;10562;-33.856;151.182;2024-03-29T07:13:01;26.40;99.90
20803;DHT22;10562;-33.856;151.182;2024-03-29T07:15:35;25.90;99.90
20803;DHT22;10562;-33.856;151.182;2024-03-29T07:18:06;25.30;99.90
20803;DHT22;10562;-33.856;151.182;2024-03-29T07:20:38;24.70;99.90
20803;DHT22;10562;-33.856;151.182;2024-03-29T07:23:11;24.30;99.90
20803;DHT22;10562;-33.856;151.182;2024-03-29T07:25:43;23.90;99.90
20803;DHT22;10562;-33.856;151.182;2024-03-29T07:28:16;23.60;99.90
20803;DHT22;10562;-33.856;151.182;2024-03-29T07:30:47;23.40;99.90
20803;DHT22;10562;-33.856;151.182;2024-03-29T07:33:18;23.20;99.90
20803;DHT22;10562;-33.856;151.182;2024-03-29T07:35:49;23.10;99.90
20803;DHT22;10562;-33.856;151.182;2024-03-29T07:38:23;22.90;99.90
20803;DHT22;10562;-33.856;151.182;2024-03-29T07:40:54;22.80;99.90
20803;DHT22;10562;-33.856;151.182;2024-03-29T07:43:34;22.70;99.90
20803;DHT22;10562;-33.856;151.182;2024-03-29T07:46:07;22.50;99.90
20803;DHT22;10562;-33.856;151.182;2024-03-29T07:48:38;22.40;99.90
20803;DHT22;10562;-33.856;151.182;2024-03-29T07:51:10;22.30;99.90
20803;DHT22;10562;-33.856;151.182;2024-03-29T07:53:45;22.10;99.90
20803;DHT22;10562;-33.856;151.182;2024-03-29T07:56:16;22.10;99.90
20803;DHT22;10562;-33.856;151.182;2024-03-29T07:58:55;22.00;99.90
20803;DHT22;10562;-33.856;151.182;2024-03-29T08:01:29;21.90;99.90
20803;DHT22;10562;-33.856;151.182;2024-03-29T08:04:01;21.80;99.90
20803;DHT22;10562;-33.856;151.182;2024-03-29T08:06:36;21.70;99.90
20803;DHT22;10562;-33.856;151.182;2024-03-29T08:09:11;21.70;99.90
20803;DHT22;10562;-33.856;151.182;2024-03-29T08:11:41;21.60;99.90
20803;DHT22;10562;-33.856;151.182;2024-03-29T08:14:14;21.50;99.90
20803;DHT22;10562;-33.856;151.182;2024-03-29T08:16:45;21.40;99.90
20803;DHT22;10562;-33.856;151.182;2024-03-29T08:19:15;21.40;99.90
20803;DHT22;10562;-33.856;151.182;2024-03-29T08:21:46;21.40;99.90
20803;DHT22;10562;-33.856;151.182;2024-03-29T08:24:17;21.40;99.90
20803;DHT22;10562;-33.856;151.182;2024-03-29T08:26:48;21.30;99.90
20803;DHT22;10562;-33.856;151.182;2024-03-29T08:29:21;21.30;99.90
20803;DHT22;10562;-33.856;151.182;2024-03-29T08:31:51;21.30;99.90
20803;DHT22;10562;-33.856;151.182;2024-03-29T08:34:22;21.30;99.90
20803;DHT22;10562;-33.856;151.182;2024-03-29T08:36:55;21.20;99.90
20803;DHT22;10562;-33.856;151.182;2024-03-29T08:39:26;21.10;99.90
20803;DHT22;10562;-33.856;151.182;2024-03-29T08:42:02;21.10;99.90
20803;DHT22;10562;-33.856;151.182;2024-03-29T08:44:34;21.10;99.90
20803;DHT22;10562;-33.856;151.182;2024-03-29T08:47:05;21.00;99.90
20803;DHT22;10562;-33.856;151.182;2024-03-29T08:49:35;21.00;99.90
20803;DHT22;10562;-33.856;151.182;2024-03-29T08:52:06;20.90;99.90
20803;DHT22;10562;-33.856;151.182;2024-03-29T08:54:37;20.90;99.90
20803;DHT22;10562;-33.856;151.182;2024-03-29T08:57:07;20.90;99.90
20803;DHT22;10562;-33.856;151.182;2024-03-29T08:59:40;20.90;99.90
20803;DHT22;10562;-33.856;151.182;2024-03-29T09:02:11;20.90;99.90
20803;DHT22;10562;-33.856;151.182;2024-03-29T09:04:42;20.90;99.90
20803;DHT22;10562;-33.856;151.182;2024-03-29T09:07:12;20.90;99.90
20803;DHT22;10562;-33.856;151.182;2024-03-29T09:09:43;20.80;99.90
20803;DHT22;10562;-33.856;151.182;2024-03-29T09:12:14;20.80;99.90
20803;DHT22;10562;-33.856;151.182;2024-03-29T09:14:48;20.80;99.90
20803;DHT22;10562;-33.856;151.182;2024-03-29T09:17:19;20.70;99.90
20803;DHT22;10562;-33.856;151.182;2024-03-29T09:19:52;20.70;99.90
20803;DHT22;10562;-33.856;151.182;2024-03-29T09:22:23;20.60;99.90
20803;DHT22;10562;-33.856;151.182;2024-03-29T09:24:54;20.60;99.90
20803;DHT22;10562;-33.856;151.182;2024-03-29T09:27:26;20.60;99.90
20803;DHT22;10562;-33.856;151.182;2024-03-29T09:29:59;20.60;99.90
20803;DHT22;10562;-33.856;151.182;2024-03-29T09:32:30;20.60;99.90
20803;DHT22;10562;-33.856;151.182;2024-03-29T09:35:01;20.60;99.90
20803;DHT22;10562;-33.856;151.182;2024-03-29T09:37:32;20.50;99.90
20803;DHT22;10562;-33.856;151.182;2024-03-29T09:40:04;20.50;99.90
20803;DHT22;10562;-33.856;151.182;2024-03-29T09:42:36;20.50;99.90
20803;DHT22;10562;-33.856;151.182;2024-03-29T09:45:11;20.50;99.90
20803;DHT22;10562;-33.856;151.182;2024-03-29T09:47:42;20.50;99.90
20803;DHT22;10562;-33.856;151.182;2024-03-29T09:50:14;20.40;99.90
20803;DHT22;10562;-33.856;151.182;2024-03-29T09:52:44;20.40;99.90
20803;DHT22;10562;-33.856;151.182;2024-03-29T09:55:18;20.30;99.90
20803;DHT22;10562;-33.856;151.182;2024-03-29T09:57:49;20.30;99.90
20803;DHT22;10562;-33.856;151.182;2024-03-29T10:00:22;20.30;99.90
20803;DHT22;10562;-33.856;151.182;2024-03-29T10:02:55;20.30;99.90
20803;DHT22;10562;-33.856;151.182;2024-03-29T10:05:27;20.20;99.90
20803;DHT22;10562;-33.856;151.182;2024-03-29T10:07:59;20.20;99.90
20803;DHT22;10562;-33.856;151.182;2024-03-29T10:10:34;20.20;99.90
20803;DHT22;10562;-33.856;151.182;2024-03-29T10:13:05;20.20;99.90
20803;DHT22;10562;-33.856;151.182;2024-03-29T10:15:38;20.10;99.90
20803;DHT22;10562;-33.856;151.182;2024-03-29T10:18:15;20.10;99.90
20803;DHT22;10562;-33.856;151.182;2024-03-29T10:20:47;20.00;99.90
20803;DHT22;10562;-33.856;151.182;2024-03-29T10:23:29;20.00;99.90
20803;DHT22;10562;-33.856;151.182;2024-03-29T10:25:59;19.90;99.90
20803;DHT22;10562;-33.856;151.182;2024-03-29T10:28:32;19.90;99.90
20803;DHT22;10562;-33.856;151.182;2024-03-29T10:31:06;19.80;99.90
20803;DHT22;10562;-33.856;151.182;2024-03-29T10:33:38;19.80;99.90
20803;DHT22;10562;-33.856;151.182;2024-03-29T10:36:10;19.70;99.90
20803;DHT22;10562;-33.856;151.182;2024-03-29T10:38:41;19.70;99.90
20803;DHT22;10562;-33.856;151.182;2024-03-29T10:41:12;19.60;99.90
20803;DHT22;10562;-33.856;151.182;2024-03-29T10:43:43;19.60;99.90
20803;DHT22;10562;-33.856;151.182;2024-03-29T10:46:18;19.60;99.90
20803;DHT22;10562;-33.856;151.182;2024-03-29T10:48:50;19.50;99.90
20803;DHT22;10562;-33.856;151.182;2024-03-29T10:51:22;19.40;99.90
20803;DHT22;10562;-33.856;151.182;2024-03-29T10:53:53;19.40;99.90
20803;DHT22;10562;-33.856;151.182;2024-03-29T10:56:25;19.40;99.90
20803;DHT22;10562;-33.856;151.182;2024-03-29T10:58:59;19.30;99.90
20803;DHT22;10562;-33.856;151.182;2024-03-29T11:01:35;19.30;99.90
20803;DHT22;10562;-33.856;151.182;2024-03-29T11:04:09;19.20;99.90
20803;DHT22;10562;-33.856;151.182;2024-03-29T11:06:43;19.20;99.90
20803;DHT22;10562;-33.856;151.182;2024-03-29T11:09:20;19.20;99.90
20803;DHT22;10562;-33.856;151.182;2024-03-29T11:11:52;19.20;99.90
20803;DHT22;10562;-33.856;151.182;2024-03-29T11:14:29;19.10;99.90
20803;DHT22;10562;-33.856;151.182;2024-03-29T11:17:04;19.00;99.90
20803;DHT22;10562;-33.856;151.182;2024-03-29T11:19:35;19.00;99.90
20803;DHT22;10562;-33.856;151.182;2024-03-29T11:22:07;19.00;99.90
20803;DHT22;10562;-33.856;151.182;2024-03-29T11:24:40;19.00;99.90
20803;DHT22;10562;-33.856;151.182;2024-03-29T11:27:11;18.90;99.90
20803;DHT22;10562;-33.856;151.182;2024-03-29T11:29:43;18.90;99.90
20803;DHT22;10562;-33.856;151.182;2024-03-29T11:35:02;18.90;99.90
20803;DHT22;10562;-33.856;151.182;2024-03-29T11:37:32;18.90;99.90
20803;DHT22;10562;-33.856;151.182;2024-03-29T11:40:10;18.90;99.90
20803;DHT22;10562;-33.856;151.182;2024-03-29T11:42:46;18.80;99.90
20803;DHT22;10562;-33.856;151.182;2024-03-29T11:45:18;18.80;99.90
20803;DHT22;10562;-33.856;151.182;2024-03-29T11:47:51;18.80;99.90
20803;DHT22;10562;-33.856;151.182;2024-03-29T11:50:23;18.70;99.90
20803;DHT22;10562;-33.856;151.182;2024-03-29T11:52:53;18.70;99.90
20803;DHT22;10562;-33.856;151.182;2024-03-29T11:55:24;18.70;99.90
20803;DHT22;10562;-33.856;151.182;2024-03-29T11:57:55;18.70;99.90
20803;DHT22;10562;-33.856;151.182;2024-03-29T12:00:26;18.70;99.90
20803;DHT22;10562;-33.856;151.182;2024-03-29T12:03:00;18.60;99.90
20803;DHT22;10562;-33.856;151.182;2024-03-29T12:05:31;18.60;99.90
20803;DHT22;10562;-33.856;151.182;2024-03-29T12:08:01;18.60;99.90
20803;DHT22;10562;-33.856;151.182;2024-03-29T12:10:33;18.60;99.90
20803;DHT22;10562;-33.856;151.182;2024-03-29T12:13:06;18.50;99.90
20803;DHT22;10562;-33.856;151.182;2024-03-29T12:15:37;18.50;99.90
20803;DHT22;10562;-33.856;151.182;2024-03-29T12:18:11;18.50;99.90
20803;DHT22;10562;-33.856;151.182;2024-03-29T12:20:44;18.50;99.90
20803;DHT22;10562;-33.856;151.182;2024-03-29T12:23:17;18.40;99.90
20803;DHT22;10562;-33.856;151.182;2024-03-29T12:25:49;18.40;99.90
20803;DHT22;10562;-33.856;151.182;2024-03-29T12:28:20;18.40;99.90
20803;DHT22;10562;-33.856;151.182;2024-03-29T12:30:51;18.40;99.90
20803;DHT22;10562;-33.856;151.182;2024-03-29T12:33:24;18.30;99.90
20803;DHT22;10562;-33.856;151.182;2024-03-29T12:35:56;18.40;99.90
20803;DHT22;10562;-33.856;151.182;2024-03-29T12:38:28;18.40;99.90
20803;DHT22;10562;-33.856;151.182;2024-03-29T12:41:00;18.40;99.90
20803;DHT22;10562;-33.856;151.182;2024-03-29T12:43:31;18.30;99.90
20803;DHT22;10562;-33.856;151.182;2024-03-29T12:46:01;18.30;99.90
20803;DHT22;10562;-33.856;151.182;2024-03-29T12:48:36;18.40;99.90
20803;DHT22;10562;-33.856;151.182;2024-03-29T12:51:10;18.40;99.90
20803;DHT22;10562;-33.856;151.182;2024-03-29T12:53:41;18.30;99.90
20803;DHT22;10562;-33.856;151.182;2024-03-29T12:56:14;18.30;99.90
20803;DHT22;10562;-33.856;151.182;2024-03-29T12:58:46;18.30;99.90
20803;DHT22;10562;-33.856;151.182;2024-03-29T13:01:17;18.30;99.90
20803;DHT22;10562;-33.856;151.182;2024-03-29T13:03:49;18.30;99.90
20803;DHT22;10562;-33.856;151.182;2024-03-29T13:06:20;18.30;99.90
20803;DHT22;10562;-33.856;151.182;2024-03-29T13:08:51;18.20;99.90
20803;DHT22;10562;-33.856;151.182;2024-03-29T13:11:24;18.20;99.90
20803;DHT22;10562;-33.856;151.182;2024-03-29T13:13:55;18.20;99.90
20803;DHT22;10562;-33.856;151.182;2024-03-29T13:16:25;18.10;99.90
20803;DHT22;10562;-33.856;151.182;2024-03-29T13:18:58;18.10;99.90
20803;DHT22;10562;-33.856;151.182;2024-03-29T13:21:29;18.00;99.90
20803;DHT22;10562;-33.856;151.182;2024-03-29T13:24:00;18.00;99.90
20803;DHT22;10562;-33.856;151.182;2024-03-29T13:26:30;18.00;99.90
20803;DHT22;10562;-33.856;151.182;2024-03-29T13:29:01;18.00;99.90
20803;DHT22;10562;-33.856;151.182;2024-03-29T13:31:32;17.90;99.90
20803;DHT22;10562;-33.856;151.182;2024-03-29T13:34:05;17.90;99.90
20803;DHT22;10562;-33.856;151.182;2024-03-29T13:36:41;17.80;99.90
20803;DHT22;10562;-33.856;151.182;2024-03-29T13:39:12;17.80;99.90
20803;DHT22;10562;-33.856;151.182;2024-03-29T13:41:44;17.80;99.90
20803;DHT22;10562;-33.856;151.182;2024-03-29T13:44:15;17.80;99.90
20803;DHT22;10562;-33.856;151.182;2024-03-29T13:46:46;17.70;99.90
20803;DHT22;10562;-33.856;151.182;2024-03-29T13:49:19;17.70;99.90
20803;DHT22;10562;-33.856;151.182;2024-03-29T13:51:50;17.70;99.90
20803;DHT22;10562;-33.856;151.182;2024-03-29T13:54:20;17.80;99.90
20803;DHT22;10562;-33.856;151.182;2024-03-29T13:56:51;17.80;99.90
20803;DHT22;10562;-33.856;151.182;2024-03-29T13:59:22;17.80;99.90
20803;DHT22;10562;-33.856;151.182;2024-03-29T14:01:53;18.00;99.90
20803;DHT22;10562;-33.856;151.182;2024-03-29T14:04:26;18.00;99.90
20803;DHT22;10562;-33.856;151.182;2024-03-29T14:06:58;18.10;99.90
20803;DHT22;10562;-33.856;151.182;2024-03-29T14:09:31;18.10;99.90
20803;DHT22;10562;-33.856;151.182;2024-03-29T14:12:02;18.10;99.90
20803;DHT22;10562;-33.856;151.182;2024-03-29T14:14:34;18.10;99.90
20803;DHT22;10562;-33.856;151.182;2024-03-29T14:17:05;18.10;99.90
20803;DHT22;10562;-33.856;151.182;2024-03-29T14:19:38;18.10;99.90
20803;DHT22;10562;-33.856;151.182;2024-03-29T14:22:10;18.00;99.90
20803;DHT22;10562;-33.856;151.182;2024-03-29T14:24:44;18.00;99.90
20803;DHT22;10562;-33.856;151.182;2024-03-29T14:27:15;18.00;99.90
20803;DHT22;10562;-33.856;151.182;2024-03-29T14:29:46;17.90;99.90
20803;DHT22;10562;-33.856;151.182;2024-03-29T14:32:17;17.90;99.90
20803;DHT22;10562;-33.856;151.182;2024-03-29T14:34:50;17.90;99.90
20803;DHT22;10562;-33.856;151.182;2024-03-29T14:37:20;17.80;99.90
20803;DHT22;10562;-33.856;151.182;2024-03-29T14:39:51;17.80;99.90
20803;DHT22;10562;-33.856;151.182;2024-03-29T14:42:22;17.80;99.90
20803;DHT22;10562;-33.856;151.182;2024-03-29T14:44:52;17.70;99.90
20803;DHT22;10562;-33.856;151.182;2024-03-29T14:47:25;17.70;99.90
20803;DHT22;10562;-33.856;151.182;2024-03-29T14:49:58;17.60;99.90
20803;DHT22;10562;-33.856;151.182;2024-03-29T14:52:31;17.60;99.90
20803;DHT22;10562;-33.856;151.182;2024-03-29T14:55:02;17.60;99.90
20803;DHT22;10562;-33.856;151.182;2024-03-29T14:57:32;17.50;99.90
20803;DHT22;10562;-33.856;151.182;2024-03-29T15:00:03;17.50;99.90
20803;DHT22;10562;-33.856;151.182;2024-03-29T15:02:38;17.50;99.90
20803;DHT22;10562;-33.856;151.182;2024-03-29T15:07:43;17.40;99.90
20803;DHT22;10562;-33.856;151.182;2024-03-29T15:10:14;17.40;99.90
20803;DHT22;10562;-33.856;151.182;2024-03-29T15:12:44;17.30;99.90
20803;DHT22;10562;-33.856;151.182;2024-03-29T15:15:15;17.30;99.90
20803;DHT22;10562;-33.856;151.182;2024-03-29T15:17:46;17.20;99.90
20803;DHT22;10562;-33.856;151.182;2024-03-29T15:20:17;17.20;99.90